Terminal Aerodrome Forecast
Issued by NWS Jackson, MS

Home | Current Version | Previous Version | Text Only | Print | Product List | Glossary On
Versions: 1 2 3 4 5 6 7 8 9 10 11 12 13 14
000
FTUS44 KMEG 032327
TAFTUP
TAF
KTUP 032327Z 0400/0424 07008KT 6SM -RA BKN040 OVC060
     FM040200 07008KT 5SM -RA BR SCT007 OVC015
     FM040400 08010KT 4SM RA BR OVC007
     FM041200 09010KT 5SM -RA BR OVC005
     FM041800 09005KT P6SM VCSH OVC009=

USA.gov is the U.S. government's official web portal to all federal, state and local government web resources and services.